createdAt,value
2022-09-12T00:01:20.573Z,0.6
2022-09-12T00:05:20.650Z,0.6
2022-09-12T00:09:20.626Z,0.6
2022-09-12T00:13:20.895Z,0.6
2022-09-12T00:17:21.074Z,0.6
2022-09-12T00:21:20.921Z,0.6
2022-09-12T00:25:20.506Z,0.6
2022-09-12T00:29:20.802Z,0.6
2022-09-12T00:33:20.360Z,0.6
2022-09-12T00:37:20.832Z,0.6
2022-09-12T00:41:20.082Z,0.6
2022-09-12T00:45:20.510Z,0.6
2022-09-12T00:49:20.469Z,0.6
2022-09-12T00:53:20.932Z,0.6
2022-09-12T00:57:20.855Z,0.6
2022-09-12T01:01:23.474Z,0.6
2022-09-12T01:05:20.686Z,0.6
2022-09-12T01:09:21.065Z,0.6
2022-09-12T01:13:20.437Z,0.6
2022-09-12T01:17:21.030Z,0.6
2022-09-12T01:21:20.714Z,0.6
2022-09-12T01:25:20.095Z,0.6
2022-09-12T01:29:20.937Z,0.6
2022-09-12T01:33:20.979Z,0.61
2022-09-12T01:37:20.628Z,0.6
2022-09-12T01:41:20.505Z,0.6
2022-09-12T01:45:20.419Z,0.6
2022-09-12T01:49:20.881Z,0.6
2022-09-12T01:53:20.286Z,0.61
2022-09-12T01:57:20.298Z,0.61
2022-09-12T02:01:23.603Z,0.61
2022-09-12T02:05:20.784Z,0.61
2022-09-12T02:09:21.035Z,0.61
2022-09-12T02:13:20.134Z,0.61
2022-09-12T02:17:20.736Z,0.61
2022-09-12T02:21:45.323Z,0.61
2022-09-12T02:25:20.903Z,0.61
2022-09-12T02:29:20.849Z,0.61
2022-09-12T02:33:20.493Z,0.61
2022-09-12T02:37:20.543Z,0.61
2022-09-12T02:41:20.832Z,0.61
2022-09-12T02:45:20.800Z,0.61
2022-09-12T02:49:21.140Z,0.61
2022-09-12T02:53:20.938Z,0.61
2022-09-12T02:57:23.077Z,0.61
2022-09-12T03:01:20.820Z,0.61
2022-09-12T03:05:20.243Z,0.61
2022-09-12T03:09:21.043Z,0.61
2022-09-12T03:13:20.696Z,0.61
2022-09-12T03:17:20.404Z,0.61
2022-09-12T03:21:20.690Z,0.61
2022-09-12T03:25:20.263Z,0.61
2022-09-12T03:29:21.128Z,0.61
2022-09-12T03:33:19.956Z,0.61
2022-09-12T03:37:20.573Z,0.61
2022-09-12T03:41:25.189Z,0.61
2022-09-12T03:45:20.550Z,0.61
2022-09-12T03:49:20.293Z,0.61
2022-09-12T03:53:20.576Z,0.61
2022-09-12T03:57:20.276Z,0.61
2022-09-12T04:01:27.757Z,0.62
2022-09-12T04:05:20.172Z,0.62
2022-09-12T04:09:20.260Z,0.62
2022-09-12T04:13:20.819Z,0.62
2022-09-12T04:17:20.725Z,0.62
2022-09-12T04:21:20.441Z,0.62
2022-09-12T04:25:20.655Z,0.62
2022-09-12T04:29:21.117Z,0.62
2022-09-12T04:33:20.068Z,0.62
2022-09-12T04:37:20.144Z,0.62
2022-09-12T04:41:20.866Z,0.62
2022-09-12T04:45:20.481Z,0.62
2022-09-12T04:49:21.245Z,0.62
2022-09-12T04:53:20.737Z,0.62
2022-09-12T04:57:20.382Z,0.62
2022-09-12T05:01:26.605Z,0.62
2022-09-12T05:05:20.872Z,0.62
2022-09-12T05:09:20.764Z,0.62
2022-09-12T05:13:24.214Z,0.62
2022-09-12T05:17:23.793Z,0.62
2022-09-12T05:21:20.939Z,0.62
2022-09-12T05:25:24.602Z,0.62
2022-09-12T05:29:20.886Z,0.62
2022-09-12T05:33:24.936Z,0.62
2022-09-12T05:37:20.827Z,0.62
2022-09-12T05:41:26.004Z,0.62
2022-09-12T05:45:20.185Z,0.62
2022-09-12T05:49:20.944Z,0.62
2022-09-12T05:53:20.887Z,0.62
2022-09-12T05:57:20.257Z,0.62
2022-09-12T06:01:29.351Z,0.62
2022-09-12T06:05:20.600Z,0.62
2022-09-12T06:09:20.865Z,0.62
2022-09-12T06:13:20.315Z,0.62
2022-09-12T06:17:21.198Z,0.63
2022-09-12T06:21:20.553Z,0.63
2022-09-12T06:25:20.751Z,0.63
2022-09-12T06:29:20.495Z,0.63
2022-09-12T06:33:20.297Z,0.63
2022-09-12T06:37:20.360Z,0.63
2022-09-12T06:41:21.532Z,0.63
2022-09-12T06:45:20.625Z,0.63
2022-09-12T06:49:26.692Z,0.63
2022-09-12T06:53:20.528Z,0.63
2022-09-12T06:57:20.433Z,0.63
2022-09-12T07:01:24.289Z,0.63
2022-09-12T07:05:20.773Z,0.62
2022-09-12T07:09:20.114Z,0.62
2022-09-12T07:13:20.603Z,0.62
2022-09-12T07:17:27.226Z,0.62
2022-09-12T07:21:20.386Z,0.62
2022-09-12T07:25:20.844Z,0.61
2022-09-12T07:29:49.340Z,0.61
2022-09-12T07:33:20.065Z,0.61
2022-09-12T07:37:20.135Z,0.62
2022-09-12T07:41:20.768Z,0.62
2022-09-12T07:45:19.932Z,0.62
2022-09-12T07:49:20.929Z,0.63
2022-09-12T07:53:20.746Z,0.63
2022-09-12T07:57:26.878Z,0.64
2022-09-12T08:01:23.417Z,0.65
2022-09-12T08:05:20.749Z,0.67
2022-09-12T08:09:21.027Z,0.67
2022-09-12T08:13:22.225Z,0.67
2022-09-12T08:17:20.651Z,0.69
2022-09-12T08:21:24.585Z,0.68
2022-09-12T08:25:20.647Z,0.68
2022-09-12T08:29:19.984Z,0.67
2022-09-12T08:33:20.678Z,0.67
2022-09-12T08:37:20.909Z,0.66
2022-09-12T08:41:21.145Z,0.67
2022-09-12T08:45:20.424Z,0.67
2022-09-12T08:49:20.789Z,0.69
2022-09-12T08:53:20.863Z,0.89
2022-09-12T08:57:26.013Z,1.08
2022-09-12T09:01:23.773Z,1.13
2022-09-12T09:05:24.920Z,1.29
2022-09-12T09:09:20.542Z,1.29
2022-09-12T09:13:20.248Z,1.36
2022-09-12T09:17:20.317Z,1.62
2022-09-12T09:21:20.935Z,1.62
2022-09-12T09:25:23.070Z,1.65
2022-09-12T09:29:20.683Z,1.79
2022-09-12T09:33:19.998Z,1.79
2022-09-12T09:37:20.905Z,1.63
2022-09-12T09:41:20.815Z,1.43
2022-09-12T09:45:20.260Z,1.43
2022-09-12T09:49:21.124Z,1.85
2022-09-12T09:53:20.601Z,1.75
2022-09-12T09:57:20.253Z,1.75
2022-09-12T10:01:27.650Z,2.03
2022-09-12T10:05:26.249Z,2.01
2022-09-12T10:09:20.529Z,2.01
2022-09-12T10:13:21.135Z,1.95
2022-09-12T10:17:20.267Z,1.71
2022-09-12T10:21:41.493Z,1.56
2022-09-12T10:25:21.004Z,1.52
2022-09-12T10:29:20.871Z,1.22
2022-09-12T10:33:27.015Z,1.63
2022-09-12T10:37:20.564Z,1.65
2022-09-12T10:41:20.598Z,2.09
2022-09-12T10:45:20.109Z,2.09
2022-09-12T10:49:26.446Z,1.68
2022-09-12T10:53:20.569Z,1.83
2022-09-12T10:57:20.468Z,1.83
2022-09-12T11:01:23.974Z,2.22
2022-09-12T11:05:22.803Z,2.07
2022-09-12T11:09:21.029Z,2.07
2022-09-12T11:13:20.467Z,2.59
2022-09-12T11:17:24.847Z,2.96
2022-09-12T11:21:20.718Z,2.96
2022-09-12T11:25:20.373Z,3.14
2022-09-12T11:29:21.192Z,2.94
2022-09-12T11:33:20.122Z,2.94
2022-09-12T11:37:23.812Z,2.23
2022-09-12T11:41:20.870Z,2.94
2022-09-12T11:45:25.131Z,3.1
2022-09-12T11:49:20.927Z,3.33
2022-09-12T11:53:20.740Z,3.44
2022-09-12T11:57:20.655Z,3.44
2022-09-12T12:01:25.507Z,3.5
2022-09-12T12:05:20.387Z,4.02
2022-09-12T12:09:20.993Z,4.02
2022-09-12T12:13:25.491Z,2.94
2022-09-12T12:17:21.167Z,3.08
2022-09-12T12:21:26.360Z,2.5
2022-09-12T12:25:22.399Z,2.38
2022-09-12T12:29:21.147Z,2.81
2022-09-12T12:33:20.452Z,2.81
2022-09-12T12:37:20.528Z,1.95
2022-09-12T12:41:20.677Z,2.23
2022-09-12T12:45:21.023Z,2.23
2022-09-12T12:49:26.349Z,2.56
2022-09-12T12:53:20.510Z,2.12
2022-09-12T12:57:20.524Z,2.12
2022-09-12T13:01:25.303Z,1.9
2022-09-12T13:05:20.673Z,1.97
2022-09-12T13:09:20.822Z,1.97
2022-09-12T13:13:20.671Z,1.56
2022-09-12T13:17:21.091Z,1.75
2022-09-12T13:21:46.417Z,2.23
2022-09-12T13:25:20.461Z,2.37
2022-09-12T13:29:20.420Z,3.86
2022-09-12T13:33:20.914Z,3.86
2022-09-12T13:37:20.666Z,3.29
2022-09-12T13:41:20.974Z,2.28
2022-09-12T13:45:20.468Z,2.28
2022-09-12T13:49:21.002Z,2.32
2022-09-12T13:53:20.287Z,2.54
2022-09-12T13:57:20.289Z,2.54
2022-09-12T14:01:23.451Z,2.38
2022-09-12T14:05:20.619Z,2.43
2022-09-12T14:09:24.943Z,2.43
2022-09-12T14:13:20.748Z,2.19
2022-09-12T14:17:23.680Z,1.91
2022-09-12T14:21:20.364Z,1.91
2022-09-12T14:25:20.158Z,2.37
2022-09-12T14:29:20.628Z,2.38
2022-09-12T14:33:20.743Z,2.38
2022-09-12T14:37:20.495Z,2.17
2022-09-12T14:41:20.590Z,1.93
2022-09-12T14:45:20.448Z,1.93
2022-09-12T14:49:21.197Z,1.9
2022-09-12T14:53:20.393Z,2.08
2022-09-12T14:57:20.600Z,2.08
2022-09-12T15:01:20.610Z,1.59
2022-09-12T15:05:20.939Z,1.78
2022-09-12T15:09:20.375Z,1.78
2022-09-12T15:13:20.276Z,1.88
2022-09-12T15:17:20.378Z,1.21
2022-09-12T15:21:20.259Z,1.21
2022-09-12T15:25:20.667Z,0.97
2022-09-12T15:29:20.789Z,0.86
2022-09-12T15:33:20.244Z,0.86
2022-09-12T15:37:20.458Z,0.83
2022-09-12T15:41:21.346Z,0.77
2022-09-12T15:45:25.153Z,0.77
2022-09-12T15:49:21.024Z,0.74
2022-09-12T15:53:20.373Z,0.74
2022-09-12T15:57:20.619Z,0.74
2022-09-12T16:01:25.367Z,0.73
2022-09-12T16:05:20.420Z,0.73
2022-09-12T16:09:27.433Z,0.72
2022-09-12T16:13:20.481Z,0.72
2022-09-12T16:17:20.629Z,0.7
2022-09-12T16:21:26.345Z,0.69
2022-09-12T16:25:20.372Z,0.69
2022-09-12T16:29:21.181Z,0.68
2022-09-12T16:33:20.611Z,0.68
2022-09-12T16:37:20.724Z,0.68
2022-09-12T16:41:20.899Z,0.68
2022-09-12T16:45:20.397Z,0.68
2022-09-12T16:49:25.979Z,0.67
2022-09-12T16:53:20.829Z,0.67
2022-09-12T16:57:20.545Z,0.67
2022-09-12T17:01:25.079Z,0.67
2022-09-12T17:05:20.581Z,0.66
2022-09-12T17:09:20.692Z,0.66
2022-09-12T17:13:20.464Z,0.66
2022-09-12T17:17:25.912Z,0.66
2022-09-12T17:21:20.543Z,0.66
2022-09-12T17:25:20.472Z,0.67
2022-09-12T17:29:20.833Z,0.67
2022-09-12T17:33:25.043Z,0.67
2022-09-12T17:37:20.561Z,0.68
2022-09-12T17:41:52.265Z,0.69
2022-09-12T17:45:20.696Z,0.69
2022-09-12T17:49:20.068Z,0.69
2022-09-12T17:53:20.848Z,0.69
2022-09-12T17:57:20.158Z,0.69
2022-09-12T18:01:23.856Z,0.69
2022-09-12T18:05:20.755Z,0.69
2022-09-12T18:09:20.741Z,0.69
2022-09-12T18:13:20.534Z,0.69
2022-09-12T18:17:20.910Z,0.69
2022-09-12T18:21:20.182Z,0.69
2022-09-12T18:25:20.568Z,0.7
2022-09-12T18:29:26.163Z,0.69
2022-09-12T18:33:23.346Z,0.69
2022-09-12T18:37:20.596Z,0.68
2022-09-12T18:41:20.880Z,0.68
2022-09-12T18:45:20.023Z,0.68
2022-09-12T18:49:20.958Z,0.67
2022-09-12T18:53:22.550Z,0.66
2022-09-12T18:57:19.981Z,0.66
2022-09-12T19:01:31.407Z,0.65
2022-09-12T19:05:20.235Z,0.64
2022-09-12T19:09:20.479Z,0.64
2022-09-12T19:13:20.366Z,0.64
2022-09-12T19:17:20.491Z,0.63
2022-09-12T19:21:20.641Z,0.63
2022-09-12T19:25:20.742Z,0.63
2022-09-12T19:29:20.629Z,0.62
2022-09-12T19:33:20.632Z,0.62
2022-09-12T19:37:48.542Z,0.62
2022-09-12T19:41:26.432Z,0.62
2022-09-12T19:45:20.847Z,0.62
2022-09-12T19:49:20.606Z,0.61
2022-09-12T19:53:25.031Z,0.61
2022-09-12T19:57:20.222Z,0.61
2022-09-12T20:01:22.111Z,0.61
2022-09-12T20:05:20.711Z,0.61
2022-09-12T20:09:20.676Z,0.61
2022-09-12T20:13:20.888Z,0.61
2022-09-12T20:17:20.148Z,0.6
2022-09-12T20:21:20.561Z,0.6
2022-09-12T20:25:20.751Z,0.6
2022-09-12T20:29:20.582Z,0.6
2022-09-12T20:33:20.398Z,0.6
2022-09-12T20:37:20.577Z,0.59
2022-09-12T20:41:20.425Z,0.59
2022-09-12T20:45:20.098Z,0.59
2022-09-12T20:49:20.109Z,0.59
2022-09-12T20:53:20.440Z,0.59
2022-09-12T20:57:20.643Z,0.59
2022-09-12T21:01:20.337Z,0.6
2022-09-12T21:05:22.821Z,0.6
2022-09-12T21:09:20.196Z,0.6
2022-09-12T21:13:20.421Z,0.6
2022-09-12T21:17:21.192Z,0.6
2022-09-12T21:21:20.887Z,0.6
2022-09-12T21:25:20.524Z,0.6
2022-09-12T21:29:20.925Z,0.6
2022-09-12T21:33:21.946Z,0.6
2022-09-12T21:37:20.724Z,0.6
2022-09-12T21:41:20.557Z,0.61
2022-09-12T21:45:20.092Z,0.61
2022-09-12T21:49:20.159Z,0.61
2022-09-12T21:53:20.074Z,0.61
2022-09-12T21:57:20.698Z,0.61
2022-09-12T22:01:30.348Z,0.61
2022-09-12T22:05:20.500Z,0.61
2022-09-12T22:09:20.013Z,0.61
2022-09-12T22:13:20.440Z,0.61
2022-09-12T22:17:21.341Z,0.61
2022-09-12T22:21:20.295Z,0.61
2022-09-12T22:25:20.126Z,0.61
2022-09-12T22:29:21.369Z,0.61
2022-09-12T22:33:20.831Z,0.61
2022-09-12T22:37:26.795Z,0.61
2022-09-12T22:41:20.976Z,0.61
2022-09-12T22:45:20.907Z,0.61
2022-09-12T22:49:26.105Z,0.61
2022-09-12T22:53:20.518Z,0.61
2022-09-12T22:57:20.907Z,0.61
2022-09-12T23:01:23.328Z,0.61
2022-09-12T23:05:20.391Z,0.61
2022-09-12T23:09:20.747Z,0.61
2022-09-12T23:13:20.658Z,0.61
2022-09-12T23:17:21.454Z,0.62
2022-09-12T23:21:20.818Z,0.62
2022-09-12T23:25:20.364Z,0.62
2022-09-12T23:29:20.081Z,0.62
2022-09-12T23:33:20.165Z,0.62
2022-09-12T23:37:20.521Z,0.62
2022-09-12T23:41:21.447Z,0.62
2022-09-12T23:45:19.968Z,0.62
2022-09-12T23:49:20.752Z,0.62
2022-09-12T23:53:23.247Z,0.62
2022-09-12T23:57:20.355Z,0.62
